createdAt,value
2023-04-13T00:01:27.601Z,46.58
2023-04-13T00:03:55.408Z,46.62
2023-04-13T00:06:22.997Z,46.87
2023-04-13T00:08:51.073Z,46.40
2023-04-13T00:11:18.764Z,46.58
2023-04-13T00:13:47.531Z,46.63
2023-04-13T00:16:16.490Z,46.55
2023-04-13T00:18:45.240Z,46.70
2023-04-13T00:21:12.653Z,46.70
2023-04-13T00:23:40.678Z,46.56
2023-04-13T00:26:08.576Z,46.83
2023-04-13T00:28:35.986Z,46.61
2023-04-13T00:31:03.512Z,46.48
2023-04-13T00:33:33.107Z,46.27
2023-04-13T00:36:00.560Z,46.67
2023-04-13T00:38:29.876Z,46.46
2023-04-13T00:40:57.659Z,46.67
2023-04-13T00:43:26.286Z,46.99
2023-04-13T00:45:54.315Z,46.97
2023-04-13T00:48:23.425Z,47.10
2023-04-13T00:50:50.882Z,47.44
2023-04-13T00:53:18.559Z,47.47
2023-04-13T00:55:48.570Z,47.50
2023-04-13T00:58:16.056Z,47.56
2023-04-13T01:00:43.739Z,47.12
2023-04-13T01:03:12.715Z,46.96
2023-04-13T01:05:50.555Z,46.91
2023-04-13T01:08:31.976Z,47.10
2023-04-13T01:11:11.287Z,47.32
2023-04-13T01:13:43.296Z,47.37
2023-04-13T01:16:18.428Z,47.74
2023-04-13T01:18:50.142Z,47.52
2023-04-13T01:21:20.368Z,47.63
2023-04-13T01:23:53.557Z,48.00
2023-04-13T01:26:22.523Z,48.09
2023-04-13T01:28:51.261Z,48.05
2023-04-13T01:31:19.699Z,47.80
2023-04-13T01:33:49.127Z,48.21
2023-04-13T01:36:17.876Z,48.23
2023-04-13T01:38:46.709Z,48.62
2023-04-13T01:41:15.528Z,48.75
2023-04-13T01:43:43.993Z,48.77
2023-04-13T01:46:16.396Z,48.76
2023-04-13T01:48:54.470Z,48.99
2023-04-13T01:51:29.986Z,48.83
2023-04-13T01:54:02.913Z,48.49
2023-04-13T01:56:30.728Z,48.14
2023-04-13T01:59:00.069Z,48.11
2023-04-13T02:01:27.780Z,48.03
2023-04-13T02:03:55.662Z,48.09
2023-04-13T02:06:25.961Z,48.15
2023-04-13T02:08:53.621Z,48.36
2023-04-13T02:11:22.120Z,48.31
2023-04-13T02:13:49.773Z,48.40
2023-04-13T02:16:17.881Z,48.54
2023-04-13T02:18:46.645Z,48.44
2023-04-13T02:21:14.462Z,48.76
2023-04-13T02:23:42.366Z,48.79
2023-04-13T02:26:16.464Z,48.70
2023-04-13T02:28:45.474Z,48.94
2023-04-13T02:31:16.990Z,48.74
2023-04-13T02:33:46.538Z,48.42
2023-04-13T02:36:17.209Z,48.31
2023-04-13T02:38:45.999Z,48.65
2023-04-13T02:41:17.152Z,48.75
2023-04-13T02:43:44.808Z,48.93
2023-04-13T02:46:13.386Z,48.71
2023-04-13T02:48:42.106Z,48.88
2023-04-13T02:51:09.959Z,48.80
2023-04-13T02:53:38.024Z,48.34
2023-04-13T02:56:06.715Z,48.31
2023-04-13T02:58:34.606Z,48.71
2023-04-13T03:01:02.484Z,48.93
2023-04-13T03:03:30.613Z,48.80
2023-04-13T03:05:58.697Z,48.71
2023-04-13T03:08:27.435Z,48.88
2023-04-13T03:10:55.830Z,48.65
2023-04-13T03:13:23.871Z,46.36
2023-04-13T03:15:53.738Z,46.01
2023-04-13T03:18:22.020Z,45.21
2023-04-13T03:20:53.277Z,44.38
2023-04-13T03:23:21.246Z,43.19
2023-04-13T03:25:49.077Z,43.07
2023-04-13T03:28:19.488Z,42.62
2023-04-13T03:30:47.261Z,42.76
2023-04-13T03:33:14.719Z,42.53
2023-04-13T03:35:42.557Z,42.26
2023-04-13T03:38:10.858Z,41.98
2023-04-13T03:40:38.614Z,41.93
2023-04-13T03:43:06.517Z,41.51
2023-04-13T03:45:34.297Z,40.88
2023-04-13T03:48:02.631Z,40.63
2023-04-13T03:50:31.445Z,40.92
2023-04-13T03:52:59.023Z,40.48
2023-04-13T03:55:27.615Z,40.85
2023-04-13T03:57:55.559Z,40.89
2023-04-13T04:00:24.202Z,40.99
2023-04-13T04:02:52.852Z,40.40
2023-04-13T04:05:20.882Z,40.57
2023-04-13T04:07:49.309Z,40.38
2023-04-13T04:10:17.849Z,40.39
2023-04-13T04:12:45.804Z,40.22
2023-04-13T04:15:13.211Z,39.89
2023-04-13T04:17:41.589Z,39.79
2023-04-13T04:20:10.373Z,39.45
2023-04-13T04:22:37.995Z,39.40
2023-04-13T04:25:06.453Z,39.28
2023-04-13T04:27:40.677Z,38.82
2023-04-13T04:30:10.985Z,38.91
2023-04-13T04:32:40.408Z,38.80
2023-04-13T04:35:11.446Z,38.91
2023-04-13T04:37:40.807Z,38.91
2023-04-13T04:40:09.704Z,38.53
2023-04-13T04:42:38.028Z,38.66
2023-04-13T04:45:07.162Z,38.95
2023-04-13T04:47:43.584Z,39.26
2023-04-13T04:50:12.684Z,39.02
2023-04-13T04:52:41.720Z,39.00
2023-04-13T04:55:09.968Z,38.90
2023-04-13T04:57:39.064Z,38.29
2023-04-13T05:00:26.554Z,38.55
2023-04-13T05:02:57.858Z,38.42
2023-04-13T05:05:26.358Z,38.64
2023-04-13T05:07:53.950Z,38.72
2023-04-13T05:10:24.504Z,38.63
2023-04-13T05:12:52.683Z,38.78
2023-04-13T05:15:20.296Z,38.92
2023-04-13T05:17:50.996Z,38.64
2023-04-13T05:20:19.340Z,38.47
2023-04-13T05:22:47.977Z,38.20
2023-04-13T05:25:15.375Z,38.06
2023-04-13T05:27:43.278Z,37.45
2023-04-13T05:30:12.105Z,37.32
2023-04-13T05:32:39.845Z,37.05
2023-04-13T05:35:08.434Z,36.75
2023-04-13T05:37:36.336Z,36.89
2023-04-13T05:40:14.349Z,36.52
2023-04-13T05:42:43.510Z,36.30
2023-04-13T05:45:12.091Z,36.64
2023-04-13T05:47:40.326Z,35.92
2023-04-13T05:50:09.298Z,35.51
2023-04-13T05:52:37.043Z,59.36
2023-04-13T05:55:04.724Z,39.65
2023-04-13T05:57:32.718Z,37.50
2023-04-13T06:00:00.922Z,37.13
2023-04-13T06:02:30.492Z,43.28
2023-04-13T06:04:58.393Z,38.13
2023-04-13T06:07:26.061Z,36.90
2023-04-13T06:09:53.631Z,36.48
2023-04-13T06:12:22.285Z,37.65
2023-04-13T06:14:49.650Z,36.89
2023-04-13T06:17:17.205Z,36.24
2023-04-13T06:19:44.943Z,38.87
2023-04-13T06:22:12.390Z,37.32
2023-04-13T06:24:40.217Z,34.96
2023-04-13T06:27:08.395Z,34.88
2023-04-13T06:29:36.525Z,33.87
2023-04-13T06:32:04.657Z,34.37
2023-04-13T06:34:32.345Z,34.71
2023-04-13T06:37:01.564Z,34.73
2023-04-13T06:39:32.472Z,34.31
2023-04-13T06:42:01.433Z,34.33
2023-04-13T06:44:38.845Z,34.14
2023-04-13T06:47:06.566Z,34.18
2023-04-13T06:49:34.174Z,33.71
2023-04-13T06:52:01.787Z,33.47
2023-04-13T06:54:29.791Z,32.58
2023-04-13T06:56:57.748Z,32.63
2023-04-13T06:59:25.191Z,32.67
2023-04-13T07:01:53.909Z,32.08
2023-04-13T07:04:21.726Z,32.42
2023-04-13T07:06:49.324Z,32.82
2023-04-13T07:09:17.175Z,32.48
2023-04-13T07:11:44.986Z,32.44
2023-04-13T07:14:12.706Z,32.25
2023-04-13T07:16:40.977Z,32.48
2023-04-13T07:19:08.533Z,32.43
2023-04-13T07:21:36.004Z,32.87
2023-04-13T07:24:04.687Z,33.03
2023-04-13T07:26:32.513Z,32.82
2023-04-13T07:29:00.514Z,32.50
2023-04-13T07:31:28.738Z,32.68
2023-04-13T07:33:56.382Z,32.92
2023-04-13T07:36:24.306Z,32.73
2023-04-13T07:38:52.527Z,33.00
2023-04-13T07:41:22.552Z,33.12
2023-04-13T07:43:51.124Z,32.36
2023-04-13T07:46:20.519Z,32.19
2023-04-13T07:48:50.373Z,32.22
2023-04-13T07:51:19.773Z,32.03
2023-04-13T07:53:47.462Z,32.10
2023-04-13T07:56:15.497Z,31.79
2023-04-13T07:58:43.308Z,32.03
2023-04-13T08:01:11.418Z,32.08
2023-04-13T08:03:39.444Z,31.45
2023-04-13T08:06:09.727Z,31.89
2023-04-13T08:08:37.263Z,31.95
2023-04-13T08:11:05.307Z,32.33
2023-04-13T08:13:34.162Z,32.40
2023-04-13T08:16:01.741Z,32.08
2023-04-13T08:18:32.243Z,32.15
2023-04-13T08:21:00.141Z,32.05
2023-04-13T08:23:28.609Z,31.56
2023-04-13T08:25:57.075Z,31.65
2023-04-13T08:28:24.477Z,31.38
2023-04-13T08:30:51.907Z,31.46
2023-04-13T08:33:19.939Z,31.30
2023-04-13T08:35:48.145Z,31.75
2023-04-13T08:38:15.660Z,31.77
2023-04-13T08:40:44.001Z,32.25
2023-04-13T08:43:11.839Z,31.78
2023-04-13T08:45:42.495Z,31.86
2023-04-13T08:48:14.480Z,31.00
2023-04-13T08:50:42.780Z,31.51
2023-04-13T08:53:10.982Z,30.82
2023-04-13T08:55:45.001Z,31.09
2023-04-13T08:58:13.820Z,30.83
2023-04-13T09:00:41.940Z,30.89
2023-04-13T09:03:14.038Z,30.68
2023-04-13T09:05:43.034Z,29.73
2023-04-13T09:08:13.620Z,29.69
2023-04-13T09:10:41.257Z,28.81
2023-04-13T09:13:09.424Z,27.16
2023-04-13T09:15:37.281Z,27.75
2023-04-13T09:18:12.592Z,28.48
2023-04-13T09:20:41.370Z,28.42
2023-04-13T09:23:16.208Z,28.22
2023-04-13T09:25:45.428Z,28.11
2023-04-13T09:28:19.721Z,27.84
2023-04-13T09:30:47.550Z,27.72
2023-04-13T09:33:16.966Z,28.25
2023-04-13T09:35:44.396Z,28.47
2023-04-13T09:38:15.345Z,28.79
2023-04-13T09:40:49.791Z,28.50
2023-04-13T09:43:17.508Z,28.87
2023-04-13T09:45:44.944Z,28.85
2023-04-13T09:48:21.897Z,28.46
2023-04-13T09:51:01.773Z,29.05
2023-04-13T09:53:42.337Z,29.43
2023-04-13T09:56:10.211Z,29.33
2023-04-13T09:58:43.279Z,29.00
2023-04-13T10:01:11.272Z,28.94
2023-04-13T10:03:39.108Z,28.98
2023-04-13T10:06:10.075Z,28.10
2023-04-13T10:08:39.181Z,27.86
2023-04-13T10:11:16.872Z,27.91
2023-04-13T10:13:57.068Z,27.55
2023-04-13T10:16:43.408Z,27.16
2023-04-13T10:19:29.677Z,27.23
2023-04-13T10:21:58.721Z,27.49
2023-04-13T10:24:28.890Z,27.84
2023-04-13T10:26:58.589Z,27.85
2023-04-13T10:29:30.261Z,28.37
2023-04-13T10:32:03.929Z,29.12
2023-04-13T10:34:34.508Z,28.90
2023-04-13T10:37:06.865Z,29.10
2023-04-13T10:39:36.102Z,28.57
2023-04-13T10:42:06.269Z,28.96
2023-04-13T10:44:50.050Z,28.90
2023-04-13T10:47:25.202Z,28.65
2023-04-13T10:49:55.072Z,29.42
2023-04-13T10:52:22.782Z,30.82
2023-04-13T10:54:50.656Z,30.82
2023-04-13T10:57:18.058Z,29.53
2023-04-13T10:59:58.763Z,29.88
2023-04-13T11:02:31.618Z,29.79
2023-04-13T11:05:00.383Z,30.15
2023-04-13T11:07:28.672Z,30.19
2023-04-13T11:12:29.184Z,29.54
2023-04-13T11:14:56.624Z,29.29
2023-04-13T11:17:24.186Z,29.06
2023-04-13T11:19:56.264Z,29.61
2023-04-13T11:22:25.755Z,29.32
2023-04-13T11:24:53.771Z,29.35
2023-04-13T11:27:23.124Z,29.10
2023-04-13T11:30:09.022Z,28.88
2023-04-13T11:32:41.470Z,27.71
2023-04-13T11:35:10.382Z,27.67
2023-04-13T11:37:56.457Z,28.10
2023-04-13T11:40:26.279Z,28.52
2023-04-13T11:42:56.670Z,28.08
2023-04-13T11:45:26.794Z,27.31
2023-04-13T11:47:56.455Z,27.66
2023-04-13T11:50:24.322Z,27.68
2023-04-13T11:52:56.937Z,27.87
2023-04-13T11:55:25.507Z,27.76
2023-04-13T11:57:53.989Z,27.21
2023-04-13T12:00:26.559Z,27.06
2023-04-13T12:05:32.422Z,26.93
2023-04-13T12:08:02.613Z,26.80
2023-04-13T12:10:40.560Z,27.53
2023-04-13T12:16:05.261Z,28.02
2023-04-13T12:18:43.289Z,28.02
2023-04-13T12:21:18.058Z,28.94
2023-04-13T12:23:59.913Z,28.24
2023-04-13T12:29:07.809Z,28.60
2023-04-13T12:31:37.642Z,27.83
2023-04-13T12:34:06.291Z,27.72
2023-04-13T12:36:36.312Z,28.72
2023-04-13T12:39:06.981Z,28.41
2023-04-13T12:41:34.805Z,27.42
2023-04-13T12:44:02.245Z,28.00
2023-04-13T12:46:29.869Z,27.95
2023-04-13T12:48:58.121Z,27.47
2023-04-13T12:51:26.646Z,28.25
2023-04-13T12:53:54.079Z,28.24
2023-04-13T12:56:22.184Z,27.69
2023-04-13T12:58:49.631Z,29.66
2023-04-13T13:01:17.299Z,29.44
2023-04-13T13:03:45.991Z,29.42
2023-04-13T13:06:13.609Z,29.08
2023-04-13T13:08:41.012Z,30.02
2023-04-13T13:11:08.717Z,30.07
2023-04-13T13:13:36.150Z,29.87
2023-04-13T13:16:03.666Z,29.99
2023-04-13T13:18:42.734Z,30.17
2023-04-13T13:21:17.370Z,29.63
2023-04-13T13:23:45.753Z,29.50
2023-04-13T13:28:43.999Z,30.48
2023-04-13T13:31:12.813Z,30.51
2023-04-13T13:33:40.251Z,30.10
2023-04-13T13:36:07.837Z,30.28
2023-04-13T13:38:36.773Z,30.24
2023-04-13T13:41:04.563Z,30.62
2023-04-13T13:43:32.788Z,30.34
2023-04-13T13:46:00.557Z,29.83
2023-04-13T13:48:28.374Z,30.25
2023-04-13T13:50:56.306Z,29.80
2023-04-13T13:53:24.538Z,30.86
2023-04-13T13:55:53.670Z,29.66
2023-04-13T13:58:21.029Z,30.03
2023-04-13T14:00:49.275Z,30.02
2023-04-13T14:03:17.147Z,30.45
2023-04-13T14:05:44.835Z,29.90
2023-04-13T14:08:12.380Z,31.07
2023-04-13T14:10:41.582Z,31.11
2023-04-13T14:13:08.974Z,31.69
2023-04-13T14:15:36.635Z,31.15
2023-04-13T14:18:10.046Z,33.75
2023-04-13T14:20:39.609Z,34.23
2023-04-13T14:23:09.279Z,34.59
2023-04-13T14:25:38.560Z,35.98
2023-04-13T14:28:06.786Z,36.99
2023-04-13T14:30:35.178Z,37.63
2023-04-13T14:33:03.964Z,37.65
2023-04-13T14:35:31.704Z,37.68
2023-04-13T14:38:00.357Z,38.50
2023-04-13T14:40:28.328Z,39.07
2023-04-13T14:42:55.807Z,38.67
2023-04-13T14:45:23.653Z,39.03
2023-04-13T14:47:53.585Z,39.06
2023-04-13T14:50:21.320Z,39.22
2023-04-13T14:52:50.142Z,39.43
2023-04-13T14:55:17.906Z,39.63
2023-04-13T14:57:45.904Z,39.72
2023-04-13T15:00:38.451Z,39.78
2023-04-13T15:03:09.712Z,39.59
2023-04-13T15:05:41.921Z,39.67
2023-04-13T15:08:11.396Z,39.93
2023-04-13T15:10:39.780Z,40.49
2023-04-13T15:13:08.322Z,40.12
2023-04-13T15:15:37.324Z,40.65
2023-04-13T15:18:06.013Z,41.58
2023-04-13T15:20:33.457Z,43.47
2023-04-13T15:23:00.891Z,41.88
2023-04-13T15:25:28.748Z,42.18
2023-04-13T15:27:58.013Z,42.08
2023-04-13T15:30:30.346Z,42.06
2023-04-13T15:32:59.470Z,42.22
2023-04-13T15:35:27.408Z,43.28
2023-04-13T15:37:55.341Z,42.88
2023-04-13T15:40:28.001Z,43.14
2023-04-13T15:42:55.486Z,44.12
2023-04-13T15:45:23.178Z,44.67
2023-04-13T15:47:51.590Z,44.99
2023-04-13T15:50:19.759Z,45.11
2023-04-13T15:52:47.409Z,45.15
2023-04-13T15:55:15.320Z,45.78
2023-04-13T15:57:42.672Z,46.02
2023-04-13T16:00:11.117Z,45.85
2023-04-13T16:02:39.175Z,47.75
2023-04-13T16:05:07.746Z,48.26
2023-04-13T16:07:35.156Z,49.31
2023-04-13T16:10:02.854Z,50.49
2023-04-13T16:12:31.613Z,50.95
2023-04-13T16:14:59.704Z,51.59
2023-04-13T16:17:33.910Z,52.08
2023-04-13T16:20:06.521Z,51.92
2023-04-13T16:22:35.714Z,52.79
2023-04-13T16:25:05.467Z,52.24
2023-04-13T16:27:32.913Z,53.11
2023-04-13T16:30:04.303Z,53.07
2023-04-13T16:32:31.907Z,52.76
2023-04-13T16:34:59.632Z,53.27
2023-04-13T16:37:27.270Z,52.67
2023-04-13T16:39:54.881Z,53.88
2023-04-13T16:42:22.416Z,53.44
2023-04-13T16:44:50.345Z,52.50
2023-04-13T16:47:18.336Z,52.74
2023-04-13T16:49:45.742Z,52.69
2023-04-13T16:52:13.373Z,52.76
2023-04-13T16:54:44.000Z,52.62
2023-04-13T16:57:11.904Z,52.81
2023-04-13T16:59:39.664Z,52.50
2023-04-13T17:02:13.189Z,53.52
2023-04-13T17:04:45.929Z,54.44
2023-04-13T17:07:13.345Z,53.84
2023-04-13T17:09:41.025Z,54.20
2023-04-13T17:12:08.743Z,54.35
2023-04-13T17:14:36.147Z,53.73
2023-04-13T17:17:03.533Z,54.38
2023-04-13T17:19:31.358Z,54.78
2023-04-13T17:21:58.837Z,54.68
2023-04-13T17:24:26.326Z,54.97
2023-04-13T17:26:54.015Z,54.84
2023-04-13T17:29:21.941Z,54.70
2023-04-13T17:31:49.739Z,54.63
2023-04-13T17:34:17.534Z,54.83
2023-04-13T17:36:45.690Z,55.50
2023-04-13T17:39:13.142Z,56.14
2023-04-13T17:41:41.692Z,55.59
2023-04-13T17:44:09.120Z,55.59
2023-04-13T17:46:36.672Z,55.83
2023-04-13T17:49:04.400Z,54.87
2023-04-13T17:51:32.448Z,54.58
2023-04-13T17:54:00.650Z,54.46
2023-04-13T17:56:28.524Z,54.44
2023-04-13T17:58:56.206Z,54.39
2023-04-13T18:01:25.686Z,54.21
2023-04-13T18:03:53.782Z,54.16
2023-04-13T18:06:21.248Z,54.29
2023-04-13T18:08:48.657Z,53.99
2023-04-13T18:11:16.320Z,54.04
2023-04-13T18:13:43.717Z,53.87
2023-04-13T18:16:13.962Z,53.83
2023-04-13T18:18:42.145Z,53.59
2023-04-13T18:21:09.902Z,53.88
2023-04-13T18:23:37.323Z,54.16
2023-04-13T18:26:05.403Z,54.59
2023-04-13T18:28:36.781Z,54.72
2023-04-13T18:31:04.510Z,55.00
2023-04-13T18:33:32.198Z,54.88
2023-04-13T18:35:59.628Z,55.45
2023-04-13T18:38:27.219Z,55.27
2023-04-13T18:40:54.921Z,54.84
2023-04-13T18:43:23.046Z,54.56
2023-04-13T18:45:50.422Z,54.49
2023-04-13T18:48:18.126Z,54.55
2023-04-13T18:50:45.490Z,54.42
2023-04-13T18:53:12.869Z,54.26
2023-04-13T18:55:41.034Z,54.50
2023-04-13T18:58:08.706Z,54.70
2023-04-13T19:00:36.143Z,54.95
2023-04-13T19:03:04.024Z,54.70
2023-04-13T19:05:33.346Z,54.64
2023-04-13T19:08:04.273Z,54.66
2023-04-13T19:10:32.015Z,54.58
2023-04-13T19:12:59.467Z,54.67
2023-04-13T19:15:27.488Z,55.13
2023-04-13T19:17:55.428Z,54.79
2023-04-13T19:20:24.160Z,54.40
2023-04-13T19:22:51.614Z,54.26
2023-04-13T19:25:19.335Z,54.55
2023-04-13T19:27:47.841Z,54.43
2023-04-13T19:30:16.848Z,54.25
2023-04-13T19:32:46.040Z,54.50
2023-04-13T19:35:13.971Z,54.50
2023-04-13T19:37:41.864Z,54.16
2023-04-13T19:40:10.243Z,53.97
2023-04-13T19:42:37.780Z,54.29
2023-04-13T19:45:05.550Z,54.70
2023-04-13T19:47:33.251Z,54.94
2023-04-13T19:50:00.721Z,54.78
2023-04-13T19:52:28.508Z,55.04
2023-04-13T19:54:56.175Z,55.05
2023-04-13T19:57:23.570Z,55.24
2023-04-13T19:59:51.294Z,55.52
2023-04-13T20:02:19.458Z,55.41
2023-04-13T20:04:50.025Z,55.50
2023-04-13T20:07:17.938Z,55.43
2023-04-13T20:09:45.641Z,55.88
2023-04-13T20:12:13.280Z,55.56
2023-04-13T20:14:42.188Z,55.41
2023-04-13T20:17:09.790Z,54.69
2023-04-13T20:19:37.598Z,53.72
2023-04-13T20:22:05.062Z,52.25
2023-04-13T20:24:32.508Z,52.07
2023-04-13T20:27:00.208Z,51.54
2023-04-13T20:29:27.695Z,51.78
2023-04-13T20:31:55.249Z,51.11
2023-04-13T20:34:24.268Z,51.17
2023-04-13T20:36:51.685Z,51.01
2023-04-13T20:39:25.416Z,50.87
2023-04-13T20:41:55.898Z,50.77
2023-04-13T20:44:24.018Z,50.30
2023-04-13T20:46:55.053Z,50.62
2023-04-13T20:49:24.026Z,50.45
2023-04-13T20:51:56.005Z,50.61
2023-04-13T20:54:23.904Z,51.40
2023-04-13T20:56:51.320Z,51.79
2023-04-13T20:59:19.361Z,52.49
2023-04-13T21:01:48.963Z,52.74
2023-04-13T21:04:17.090Z,53.90
2023-04-13T21:06:44.995Z,54.06
2023-04-13T21:09:13.589Z,54.83
2023-04-13T21:11:42.651Z,55.24
2023-04-13T21:14:10.140Z,55.35
2023-04-13T21:16:37.851Z,55.68
2023-04-13T21:19:05.735Z,56.09
2023-04-13T21:21:33.210Z,56.50
2023-04-13T21:24:01.153Z,57.10
2023-04-13T21:26:28.790Z,57.23
2023-04-13T21:28:56.242Z,57.72
2023-04-13T21:31:23.947Z,57.32
2023-04-13T21:33:51.647Z,57.26
2023-04-13T21:38:49.762Z,56.89
2023-04-13T21:41:18.447Z,56.68
2023-04-13T21:43:46.271Z,56.29
2023-04-13T21:46:15.580Z,56.75
2023-04-13T21:48:43.226Z,57.74
2023-04-13T21:51:10.677Z,58.68
2023-04-13T21:53:38.668Z,59.26
2023-04-13T21:56:06.281Z,59.03
2023-04-13T21:58:44.534Z,59.33
2023-04-13T22:01:13.561Z,58.82
2023-04-13T22:03:46.846Z,59.09
2023-04-13T22:06:14.889Z,58.76
2023-04-13T22:08:42.582Z,58.33
2023-04-13T22:11:10.696Z,58.02
2023-04-13T22:13:39.785Z,57.73
2023-04-13T22:16:08.122Z,57.54
2023-04-13T22:18:35.825Z,57.47
2023-04-13T22:21:03.253Z,57.41
2023-04-13T22:23:31.071Z,57.24
2023-04-13T22:25:58.744Z,56.90
2023-04-13T22:28:26.334Z,56.36
2023-04-13T22:30:54.117Z,56.09
2023-04-13T22:33:21.969Z,55.78
2023-04-13T22:35:50.791Z,56.10
2023-04-13T22:38:18.924Z,56.03
2023-04-13T22:40:46.381Z,56.46
2023-04-13T22:43:13.769Z,55.70
2023-04-13T22:45:41.530Z,55.52
2023-04-13T22:48:09.048Z,55.73
2023-04-13T22:50:38.010Z,55.69
2023-04-13T22:53:05.971Z,55.28
2023-04-13T22:55:33.354Z,55.69
2023-04-13T22:58:00.756Z,55.53
2023-04-13T23:00:28.439Z,55.55
2023-04-13T23:02:56.596Z,55.26
2023-04-13T23:05:24.558Z,56.04
2023-04-13T23:07:52.307Z,55.22
2023-04-13T23:10:19.828Z,54.95
2023-04-13T23:12:47.313Z,54.51
2023-04-13T23:15:15.002Z,54.56
2023-04-13T23:17:42.433Z,54.58
2023-04-13T23:20:12.694Z,54.90
2023-04-13T23:22:40.472Z,54.17
2023-04-13T23:25:08.224Z,54.27
2023-04-13T23:27:35.624Z,54.45
2023-04-13T23:30:03.964Z,53.95
2023-04-13T23:32:31.401Z,53.43
2023-04-13T23:34:59.406Z,53.51
2023-04-13T23:37:27.138Z,53.07
2023-04-13T23:39:54.698Z,53.74
2023-04-13T23:42:22.223Z,52.88
2023-04-13T23:44:49.932Z,52.68
2023-04-13T23:47:17.410Z,52.50
2023-04-13T23:49:46.788Z,52.51
2023-04-13T23:52:14.463Z,52.15
2023-04-13T23:54:41.889Z,52.09
2023-04-13T23:57:10.393Z,51.78
2023-04-13T23:59:38.290Z,51.75
